createdAt,value
2018-06-08T00:01:46.112Z,11.40
2018-06-08T00:04:14.734Z,13.20
2018-06-08T00:06:42.850Z,13.37
2018-06-08T00:09:11.262Z,12.20
2018-06-08T00:11:39.689Z,11.20
2018-06-08T00:14:07.865Z,13.47
2018-06-08T00:16:36.290Z,12.20
2018-06-08T00:19:04.974Z,13.23
2018-06-08T00:21:33.386Z,13.67
2018-06-08T00:24:01.777Z,11.70
2018-06-08T00:26:29.907Z,12.10
2018-06-08T00:28:58.453Z,13.63
2018-06-08T00:31:26.669Z,12.80
2018-06-08T00:33:55.158Z,13.50
2018-06-08T00:36:23.578Z,11.70
2018-06-08T00:38:52.111Z,12.40
2018-06-08T00:41:20.246Z,12.67
2018-06-08T00:43:48.344Z,12.50
2018-06-08T00:46:16.494Z,13.37
2018-06-08T00:48:45.044Z,11.90
2018-06-08T00:51:13.458Z,13.17
2018-06-08T00:53:41.592Z,12.60
2018-06-08T00:56:21.914Z,14.20
2018-06-08T00:58:50.302Z,14.30
2018-06-08T01:01:18.848Z,14.30
2018-06-08T01:03:46.981Z,15.33
2018-06-08T01:06:15.208Z,15.73
2018-06-08T01:08:43.398Z,14.70
2018-06-08T01:11:11.488Z,16.37
2018-06-08T01:13:39.584Z,14.07
2018-06-08T01:16:07.810Z,13.87
2018-06-08T01:18:43.045Z,15.07
2018-06-08T01:21:11.530Z,14.37
2018-06-08T01:23:40.113Z,16.90
2018-06-08T01:26:08.528Z,14.90
2018-06-08T01:28:36.930Z,15.10
2018-06-08T01:31:05.636Z,16.60
2018-06-08T01:33:33.759Z,15.00
2018-06-08T01:36:02.350Z,15.20
2018-06-08T01:38:30.920Z,15.50
2018-06-08T01:40:59.408Z,17.13
2018-06-08T01:43:27.528Z,19.77
2018-06-08T01:45:55.959Z,18.33
2018-06-08T01:48:24.056Z,19.87
2018-06-08T01:50:52.503Z,17.17
2018-06-08T01:53:20.648Z,16.93
2018-06-08T01:55:49.194Z,15.80
2018-06-08T01:58:17.703Z,14.67
2018-06-08T02:00:46.123Z,14.47
2018-06-08T02:03:14.255Z,13.57
2018-06-08T02:05:42.668Z,14.00
2018-06-08T02:08:11.173Z,15.33
2018-06-08T02:10:39.292Z,15.80
2018-06-08T02:13:07.734Z,14.10
2018-06-08T02:15:35.961Z,16.50
2018-06-08T02:18:04.155Z,18.43
2018-06-08T02:20:32.242Z,19.00
2018-06-08T02:23:00.646Z,19.47
2018-06-08T02:25:28.881Z,17.90
2018-06-08T02:27:57.099Z,20.30
2018-06-08T02:30:25.221Z,20.17
2018-06-08T02:32:53.649Z,20.97
2018-06-08T02:35:21.757Z,21.83
2018-06-08T02:37:50.395Z,19.37
2018-06-08T02:40:18.822Z,16.30
2018-06-08T02:42:47.352Z,19.63
2018-06-08T02:45:15.491Z,19.00
2018-06-08T02:47:44.014Z,20.00
2018-06-08T02:50:12.566Z,19.93
2018-06-08T02:52:41.080Z,17.87
2018-06-08T02:55:09.233Z,19.53
2018-06-08T02:57:37.335Z,19.60
2018-06-08T03:00:05.623Z,19.90
2018-06-08T03:02:34.135Z,20.27
2018-06-08T03:05:02.650Z,19.73
2018-06-08T03:07:30.844Z,22.27
2018-06-08T03:09:58.929Z,23.30
2018-06-08T03:12:27.056Z,24.80
2018-06-08T03:14:55.146Z,22.30
2018-06-08T03:17:24.246Z,24.70
2018-06-08T03:19:52.346Z,22.27
2018-06-08T03:22:20.826Z,23.10
2018-06-08T03:24:49.614Z,21.87
2018-06-08T03:27:18.156Z,22.20
2018-06-08T03:29:46.334Z,20.77
2018-06-08T03:32:14.750Z,22.30
2018-06-08T03:34:42.929Z,22.90
2018-06-08T03:37:11.350Z,20.80
2018-06-08T03:39:39.938Z,21.77
2018-06-08T03:42:08.324Z,19.90
2018-06-08T03:44:36.435Z,21.80
2018-06-08T03:47:04.630Z,22.70
2018-06-08T03:49:32.746Z,21.27
2018-06-08T03:52:01.300Z,20.93
2018-06-08T03:54:29.764Z,20.73
2018-06-08T03:56:58.539Z,20.97
2018-06-08T03:59:27.000Z,19.10
2018-06-08T04:01:55.114Z,19.03
2018-06-08T04:04:23.565Z,20.23
2018-06-08T04:06:51.984Z,19.63
2018-06-08T04:09:20.499Z,19.10
2018-06-08T04:11:49.121Z,19.17
2018-06-08T04:14:17.576Z,17.93
2018-06-08T04:16:45.698Z,18.73
2018-06-08T04:19:14.127Z,18.60
2018-06-08T04:21:42.554Z,19.77
2018-06-08T04:24:10.972Z,18.40
2018-06-08T04:26:39.102Z,19.10
2018-06-08T04:29:07.501Z,19.10
2018-06-08T04:31:35.637Z,21.40
2018-06-08T04:34:03.953Z,18.03
2018-06-08T04:36:32.417Z,18.40
2018-06-08T04:39:00.883Z,18.80
2018-06-08T04:41:29.310Z,17.03
2018-06-08T04:43:57.738Z,17.57
2018-06-08T04:46:26.175Z,17.67
2018-06-08T04:48:54.598Z,18.43
2018-06-08T04:51:22.734Z,17.53
2018-06-08T04:53:50.917Z,18.27
2018-06-08T04:56:19.140Z,16.07
2018-06-08T04:58:47.277Z,18.40
2018-06-08T05:01:15.429Z,17.70
2018-06-08T05:03:43.555Z,17.13
2018-06-08T05:06:11.985Z,17.50
2018-06-08T05:08:40.644Z,17.57
2018-06-08T05:11:08.763Z,17.37
2018-06-08T05:13:36.888Z,18.47
2018-06-08T05:16:05.337Z,17.30
2018-06-08T05:18:33.764Z,18.93
2018-06-08T05:21:02.289Z,22.63
2018-06-08T05:23:30.394Z,20.50
2018-06-08T05:25:58.915Z,20.27
2018-06-08T05:28:27.070Z,21.20
2018-06-08T05:30:55.499Z,27.97
2018-06-08T05:33:23.641Z,26.50
2018-06-08T05:35:51.756Z,29.70
2018-06-08T05:38:19.864Z,30.47
2018-06-08T05:40:47.991Z,33.33
2018-06-08T05:43:16.113Z,34.57
2018-06-08T05:45:44.628Z,32.30
2018-06-08T05:48:13.090Z,33.47
2018-06-08T05:50:41.199Z,36.90
2018-06-08T05:53:09.644Z,37.87
2018-06-08T05:55:38.049Z,37.37
2018-06-08T05:58:06.672Z,34.00
2018-06-08T06:00:34.783Z,32.47
2018-06-08T06:03:02.917Z,30.00
2018-06-08T06:05:31.365Z,61.47
2018-06-08T06:07:59.491Z,33.33
2018-06-08T06:10:27.938Z,29.33
2018-06-08T06:12:56.393Z,29.17
2018-06-08T06:15:24.833Z,28.77
2018-06-08T06:17:53.235Z,34.20
2018-06-08T06:20:21.371Z,28.37
2018-06-08T06:22:49.794Z,26.57
2018-06-08T06:25:18.311Z,26.33
2018-06-08T06:27:46.718Z,26.30
2018-06-08T06:30:14.829Z,24.73
2018-06-08T06:32:43.249Z,24.53
2018-06-08T06:35:11.454Z,24.93
2018-06-08T06:37:39.860Z,26.10
2018-06-08T06:40:08.381Z,26.47
2018-06-08T06:42:36.512Z,26.20
2018-06-08T06:45:06.118Z,28.07
2018-06-08T06:47:34.636Z,26.70
2018-06-08T06:50:02.758Z,24.27
2018-06-08T06:52:31.172Z,24.00
2018-06-08T06:54:59.575Z,23.17
2018-06-08T06:57:28.003Z,24.57
2018-06-08T06:59:56.158Z,23.23
2018-06-08T07:02:24.943Z,22.90
2018-06-08T07:04:53.048Z,24.93
2018-06-08T07:07:21.490Z,22.27
2018-06-08T07:09:49.877Z,21.53
2018-06-08T07:12:18.358Z,20.47
2018-06-08T07:14:46.473Z,17.57
2018-06-08T07:17:14.605Z,18.83
2018-06-08T07:19:43.016Z,19.73
2018-06-08T07:22:11.462Z,19.40
2018-06-08T07:24:39.914Z,21.00
2018-06-08T07:27:08.316Z,20.57
2018-06-08T07:29:36.747Z,20.27
2018-06-08T07:32:05.170Z,17.60
2018-06-08T07:34:33.619Z,18.10
2018-06-08T07:37:02.239Z,17.53
2018-06-08T07:39:30.805Z,14.57
2018-06-08T07:41:58.993Z,16.43
2018-06-08T07:44:27.122Z,12.37
2018-06-08T07:46:55.571Z,13.00
2018-06-08T07:49:24.006Z,13.37
2018-06-08T07:51:52.125Z,14.70
2018-06-08T07:54:20.558Z,14.10
2018-06-08T07:56:48.655Z,13.30
2018-06-08T07:59:16.794Z,13.53
2018-06-08T08:01:45.227Z,12.80
2018-06-08T08:04:13.642Z,12.73
2018-06-08T08:06:42.206Z,13.43
2018-06-08T08:09:10.447Z,11.00
2018-06-08T08:11:38.948Z,11.07
2018-06-08T08:14:07.521Z,10.83
2018-06-08T08:16:36.058Z,11.20
2018-06-08T08:19:04.503Z,10.37
2018-06-08T08:21:32.974Z,9.57
2018-06-08T08:24:01.096Z,11.07
2018-06-08T08:26:29.652Z,10.83
2018-06-08T08:28:58.099Z,9.00
2018-06-08T08:31:26.503Z,11.57
2018-06-08T08:33:54.908Z,8.30
2018-06-08T08:36:23.341Z,9.30
2018-06-08T08:38:51.573Z,8.73
2018-06-08T08:41:20.042Z,8.90
2018-06-08T08:43:48.463Z,9.17
2018-06-08T08:46:16.929Z,9.27
2018-06-08T08:48:45.353Z,8.77
2018-06-08T08:51:13.475Z,9.00
2018-06-08T08:53:42.056Z,14.57
2018-06-08T08:56:10.451Z,8.97
2018-06-08T08:58:38.554Z,8.40
2018-06-08T09:01:06.992Z,8.37
2018-06-08T09:03:35.523Z,7.70
2018-06-08T09:06:03.661Z,8.10
2018-06-08T09:08:32.087Z,7.70
2018-06-08T09:11:00.531Z,8.10
2018-06-08T09:13:28.925Z,8.73
2018-06-08T09:15:57.340Z,7.53
2018-06-08T09:18:25.784Z,7.50
2018-06-08T09:20:54.349Z,7.23
2018-06-08T09:23:22.876Z,8.37
2018-06-08T09:25:51.283Z,8.17
2018-06-08T09:28:19.722Z,8.13
2018-06-08T09:30:48.147Z,7.60
2018-06-08T09:33:16.682Z,7.80
2018-06-08T09:35:45.139Z,7.40
2018-06-08T09:38:13.560Z,7.90
2018-06-08T09:40:41.971Z,10.90
2018-06-08T09:43:10.529Z,8.37
2018-06-08T09:45:38.669Z,8.27
2018-06-08T09:48:07.054Z,8.17
2018-06-08T09:50:35.180Z,8.40
2018-06-08T09:53:03.594Z,8.17
2018-06-08T09:55:31.746Z,7.97
2018-06-08T09:58:00.257Z,8.10
2018-06-08T10:00:33.877Z,9.40
2018-06-08T10:03:02.285Z,9.53
2018-06-08T10:05:30.760Z,8.23
2018-06-08T10:07:58.973Z,9.77
2018-06-08T10:10:27.093Z,9.97
2018-06-08T10:12:55.645Z,10.23
2018-06-08T10:15:24.143Z,10.00
2018-06-08T10:17:52.285Z,9.93
2018-06-08T10:20:20.669Z,8.80
2018-06-08T10:22:49.125Z,8.87
2018-06-08T10:25:17.697Z,7.97
2018-06-08T10:27:45.807Z,8.10
2018-06-08T10:30:14.288Z,8.27
2018-06-08T10:32:42.429Z,8.47
2018-06-08T10:35:10.518Z,7.40
2018-06-08T10:37:38.599Z,5.90
2018-06-08T10:40:07.027Z,6.80
2018-06-08T10:42:35.446Z,7.33
2018-06-08T10:45:04.008Z,9.93
2018-06-08T10:47:32.524Z,7.90
2018-06-08T10:50:00.970Z,7.50
2018-06-08T10:52:29.113Z,7.20
2018-06-08T10:54:57.221Z,8.00
2018-06-08T10:57:30.163Z,23.93
2018-06-08T10:59:58.335Z,8.57
2018-06-08T11:02:26.542Z,8.43
2018-06-08T11:04:54.952Z,7.10
2018-06-08T11:07:23.388Z,9.30
2018-06-08T11:09:51.821Z,8.87
2018-06-08T11:12:20.309Z,9.17
2018-06-08T11:14:49.171Z,10.50
2018-06-08T11:17:17.608Z,8.30
2018-06-08T11:19:46.054Z,8.40
2018-06-08T11:22:14.182Z,7.90
2018-06-08T11:24:42.585Z,7.93
2018-06-08T11:27:11.015Z,7.83
2018-06-08T11:29:39.180Z,8.70
2018-06-08T11:32:07.645Z,6.80
2018-06-08T11:34:36.068Z,6.83
2018-06-08T11:37:04.244Z,7.30
2018-06-08T11:39:32.736Z,6.43
2018-06-08T11:42:01.102Z,5.07
2018-06-08T11:44:29.662Z,6.13
2018-06-08T11:46:58.257Z,6.33
2018-06-08T11:49:26.674Z,6.00
2018-06-08T11:51:55.113Z,6.63
2018-06-08T11:54:23.708Z,6.37
2018-06-08T11:56:52.118Z,5.80
2018-06-08T11:59:20.632Z,5.83
2018-06-08T12:01:49.076Z,5.40
2018-06-08T12:04:17.197Z,5.97
2018-06-08T12:06:45.663Z,6.47
2018-06-08T12:09:14.081Z,7.33
2018-06-08T12:11:42.487Z,6.13
2018-06-08T12:14:10.902Z,5.53
2018-06-08T12:16:39.023Z,5.33
2018-06-08T12:19:07.446Z,5.63
2018-06-08T12:21:35.880Z,5.30
2018-06-08T12:24:03.985Z,5.40
2018-06-08T12:26:32.211Z,5.63
2018-06-08T12:29:00.411Z,5.67
2018-06-08T12:31:28.488Z,5.67
2018-06-08T12:33:56.969Z,6.50
2018-06-08T12:36:25.387Z,5.40
2018-06-08T12:38:53.814Z,4.80
2018-06-08T12:41:22.215Z,5.70
2018-06-08T12:43:50.639Z,6.30
2018-06-08T12:46:19.055Z,6.60
2018-06-08T12:48:47.539Z,6.87
2018-06-08T12:51:15.953Z,6.10
2018-06-08T12:53:44.376Z,5.77
2018-06-08T12:56:12.539Z,5.70
2018-06-08T12:58:40.651Z,6.03
2018-06-08T13:01:09.206Z,5.70
2018-06-08T13:03:37.820Z,5.70
2018-06-08T13:06:06.354Z,6.67
2018-06-08T13:08:34.997Z,6.07
2018-06-08T13:11:03.527Z,6.67
2018-06-08T13:13:31.679Z,6.37
2018-06-08T13:16:00.158Z,6.20
2018-06-08T13:18:28.566Z,6.00
2018-06-08T13:20:57.011Z,5.80
2018-06-08T13:23:25.521Z,6.23
2018-06-08T13:25:53.628Z,6.27
2018-06-08T13:28:21.733Z,6.30
2018-06-08T13:30:49.857Z,5.90
2018-06-08T13:33:18.386Z,6.07
2018-06-08T13:35:46.526Z,6.40
2018-06-08T13:38:14.654Z,6.50
2018-06-08T13:40:43.068Z,6.37
2018-06-08T13:43:11.191Z,6.20
2018-06-08T13:45:39.314Z,7.40
2018-06-08T13:48:07.755Z,5.70
2018-06-08T13:50:36.258Z,6.73
2018-06-08T13:53:04.377Z,6.27
2018-06-08T13:55:32.492Z,5.40
2018-06-08T13:58:00.894Z,5.23
2018-06-08T14:00:29.043Z,6.23
2018-06-08T14:02:57.577Z,5.70
2018-06-08T14:05:26.043Z,7.77
2018-06-08T14:07:54.493Z,4.03
2018-06-08T14:10:22.609Z,4.20
2018-06-08T14:12:50.758Z,4.30
2018-06-08T14:15:18.870Z,4.23
2018-06-08T14:17:47.340Z,5.77
2018-06-08T14:20:15.474Z,4.87
2018-06-08T14:22:43.993Z,4.87
2018-06-08T14:25:12.455Z,5.17
2018-06-08T14:27:40.601Z,4.40
2018-06-08T14:30:08.801Z,4.70
2018-06-08T14:32:37.016Z,5.10
2018-06-08T14:35:05.581Z,5.03
2018-06-08T14:37:34.113Z,4.40
2018-06-08T14:40:02.262Z,5.80
2018-06-08T14:42:30.514Z,5.37
2018-06-08T14:44:58.981Z,5.53
2018-06-08T14:47:27.153Z,5.30
2018-06-08T14:49:55.642Z,6.10
2018-06-08T14:52:23.911Z,5.30
2018-06-08T14:54:52.069Z,6.20
2018-06-08T14:57:20.674Z,5.87
2018-06-08T14:59:49.290Z,6.07
2018-06-08T15:02:17.508Z,5.40
2018-06-08T15:04:46.069Z,5.87
2018-06-08T15:07:14.674Z,5.30
2018-06-08T15:09:42.946Z,4.90
2018-06-08T15:12:11.554Z,4.93
2018-06-08T15:14:39.722Z,5.60
2018-06-08T15:17:08.161Z,5.90
2018-06-08T15:19:36.637Z,6.90
2018-06-08T15:22:04.770Z,6.13
2018-06-08T15:24:33.287Z,5.60
2018-06-08T15:27:01.410Z,5.93
2018-06-08T15:29:29.884Z,5.50
2018-06-08T15:31:58.396Z,4.33
2018-06-08T15:34:26.881Z,5.83
2018-06-08T15:36:55.019Z,5.13
2018-06-08T15:39:23.611Z,4.33
2018-06-08T15:41:51.789Z,5.20
2018-06-08T15:44:19.966Z,5.80
2018-06-08T15:46:48.994Z,5.60
2018-06-08T15:49:18.150Z,6.67
2018-06-08T15:51:47.385Z,7.87
2018-06-08T15:54:15.684Z,5.67
2018-06-08T15:56:44.661Z,6.40
2018-06-08T15:59:13.237Z,6.77
2018-06-08T16:01:41.710Z,6.50
2018-06-08T16:04:10.106Z,5.80
2018-06-08T16:06:38.623Z,5.43
2018-06-08T16:09:07.838Z,5.00
2018-06-08T16:11:36.314Z,5.83
2018-06-08T16:14:04.463Z,5.60
2018-06-08T16:16:33.009Z,4.77
2018-06-08T16:19:01.606Z,5.47
2018-06-08T16:21:30.312Z,6.03
2018-06-08T16:23:58.770Z,5.10
2018-06-08T16:26:27.253Z,9.70
2018-06-08T16:28:55.744Z,8.60
2018-06-08T16:31:24.223Z,7.63
2018-06-08T16:33:52.712Z,9.10
2018-06-08T16:36:21.294Z,9.23
2018-06-08T16:38:49.835Z,7.30
2018-06-08T16:41:18.371Z,8.00
2018-06-08T16:43:46.868Z,7.77
2018-06-08T16:46:15.395Z,9.07
2018-06-08T16:48:43.867Z,7.77
2018-06-08T16:51:12.043Z,7.70
2018-06-08T16:53:40.484Z,7.73
2018-06-08T16:56:08.631Z,5.97
2018-06-08T16:58:36.791Z,5.80
2018-06-08T17:01:05.380Z,7.00
2018-06-08T17:03:33.529Z,7.97
2018-06-08T17:06:01.948Z,8.60
2018-06-08T17:08:30.409Z,8.00
2018-06-08T17:10:58.865Z,7.73
2018-06-08T17:13:27.177Z,6.50
2018-06-08T17:15:55.328Z,5.80
2018-06-08T17:18:24.006Z,5.80
2018-06-08T17:20:52.459Z,6.40
2018-06-08T17:23:20.927Z,6.17
2018-06-08T17:25:49.439Z,5.87
2018-06-08T17:28:17.959Z,5.17
2018-06-08T17:30:46.935Z,5.53
2018-06-08T17:33:15.448Z,6.03
2018-06-08T17:35:43.919Z,5.20
2018-06-08T17:38:12.406Z,5.80
2018-06-08T17:40:40.862Z,5.97
2018-06-08T17:43:09.482Z,6.00
2018-06-08T17:45:38.140Z,6.23
2018-06-08T17:48:06.614Z,6.20
2018-06-08T17:50:35.240Z,5.87
2018-06-08T17:53:03.754Z,6.00
2018-06-08T17:55:31.985Z,6.03
2018-06-08T17:58:00.227Z,6.20
2018-06-08T18:00:28.744Z,6.10
2018-06-08T18:02:56.980Z,6.90
2018-06-08T18:05:25.590Z,6.93
2018-06-08T18:07:53.789Z,7.07
2018-06-08T18:10:22.819Z,8.37
2018-06-08T18:12:50.996Z,6.43
2018-06-08T18:15:19.151Z,7.00
2018-06-08T18:17:47.468Z,7.07
2018-06-08T18:20:15.554Z,7.07
2018-06-08T18:22:44.082Z,7.63
2018-06-08T18:25:12.263Z,7.10
2018-06-08T18:27:40.541Z,6.87
2018-06-08T18:30:09.154Z,7.57
2018-06-08T18:32:37.286Z,6.80
2018-06-08T18:35:05.710Z,7.07
2018-06-08T18:37:33.938Z,7.33
2018-06-08T18:40:02.136Z,7.87
2018-06-08T18:42:30.461Z,7.97
2018-06-08T18:44:59.017Z,8.20
2018-06-08T18:47:27.774Z,7.90
2018-06-08T18:49:55.905Z,8.40
2018-06-08T18:52:25.244Z,8.20
2018-06-08T18:54:53.766Z,9.00
2018-06-08T18:57:22.238Z,8.90
2018-06-08T18:59:50.406Z,8.80
2018-06-08T19:02:18.582Z,9.47
2018-06-08T19:04:46.799Z,11.40
2018-06-08T19:07:15.093Z,8.30
2018-06-08T19:09:43.800Z,9.10
2018-06-08T19:12:12.318Z,8.80
2018-06-08T19:14:41.703Z,10.00
2018-06-08T19:17:11.334Z,9.07
2018-06-08T19:19:39.866Z,10.27
2018-06-08T19:22:08.209Z,10.80
2018-06-08T19:24:36.973Z,10.10
2018-06-08T19:27:05.841Z,11.40
2018-06-08T19:29:34.430Z,10.27
2018-06-08T19:32:02.584Z,10.53
2018-06-08T19:34:30.720Z,10.77
2018-06-08T19:36:58.937Z,11.47
2018-06-08T19:39:27.467Z,11.63
2018-06-08T19:41:56.053Z,9.50
2018-06-08T19:44:24.723Z,9.60
2018-06-08T19:46:52.887Z,10.30
2018-06-08T19:49:21.079Z,10.07
2018-06-08T19:51:49.623Z,10.27
2018-06-08T19:54:18.162Z,11.40
2018-06-08T19:56:46.999Z,9.63
2018-06-08T19:59:16.127Z,9.60
2018-06-08T20:01:44.661Z,10.43
2018-06-08T20:04:13.153Z,9.87
2018-06-08T20:06:41.412Z,10.17
2018-06-08T20:09:10.503Z,9.57
2018-06-08T20:11:39.010Z,10.90
2018-06-08T20:14:08.386Z,10.63
2018-06-08T20:16:36.935Z,10.13
2018-06-08T20:19:06.380Z,10.37
2018-06-08T20:21:35.262Z,10.60
2018-06-08T20:24:03.453Z,10.93
2018-06-08T20:26:31.672Z,9.60
2018-06-08T20:29:00.191Z,9.90
2018-06-08T20:31:28.392Z,9.80
2018-06-08T20:33:56.939Z,10.37
2018-06-08T20:36:25.147Z,10.37
2018-06-08T20:38:54.140Z,11.13
2018-06-08T20:41:22.617Z,9.00
2018-06-08T20:43:51.342Z,10.77
2018-06-08T20:46:19.566Z,10.37
2018-06-08T20:48:48.052Z,11.30
2018-06-08T20:51:16.545Z,11.10
2018-06-08T20:53:45.079Z,11.30
2018-06-08T20:56:13.653Z,10.07
2018-06-08T20:58:42.213Z,9.50
2018-06-08T21:01:11.602Z,9.77
2018-06-08T21:03:39.858Z,9.27
2018-06-08T21:06:08.410Z,9.97
2018-06-08T21:08:36.943Z,9.40
2018-06-08T21:11:05.620Z,8.60
2018-06-08T21:13:33.811Z,8.40
2018-06-08T21:16:02.439Z,8.37
2018-06-08T21:18:31.241Z,8.53
2018-06-08T21:21:00.392Z,7.60
2018-06-08T21:23:28.589Z,8.07
2018-06-08T21:25:56.717Z,9.23
2018-06-08T21:28:24.849Z,8.97
2018-06-08T21:30:53.337Z,8.57
2018-06-08T21:33:22.122Z,8.63
2018-06-08T21:35:50.773Z,8.77
2018-06-08T21:38:19.243Z,9.67
2018-06-08T21:40:47.371Z,9.20
2018-06-08T21:43:15.536Z,10.90
2018-06-08T21:45:44.075Z,9.93
2018-06-08T21:48:12.292Z,9.17
2018-06-08T21:50:40.719Z,9.90
2018-06-08T21:53:08.873Z,9.67
2018-06-08T21:55:37.111Z,9.53
2018-06-08T21:58:05.671Z,10.00
2018-06-08T22:00:33.851Z,9.73
2018-06-08T22:03:02.419Z,10.33
2018-06-08T22:05:30.583Z,11.60
2018-06-08T22:07:59.049Z,9.33
2018-06-08T22:10:27.587Z,9.10
2018-06-08T22:12:56.055Z,10.50
2018-06-08T22:15:24.509Z,10.13
2018-06-08T22:17:53.038Z,9.97
2018-06-08T22:20:21.285Z,10.10
2018-06-08T22:22:49.435Z,8.10
2018-06-08T22:25:17.879Z,10.27
2018-06-08T22:27:46.461Z,9.60
2018-06-08T22:30:14.915Z,9.77
2018-06-08T22:32:43.427Z,9.37
2018-06-08T22:35:11.555Z,8.90
2018-06-08T22:37:39.684Z,9.23
2018-06-08T22:40:07.915Z,9.67
2018-06-08T22:42:36.122Z,8.43
2018-06-08T22:45:04.643Z,8.90
2018-06-08T22:47:32.877Z,8.40
2018-06-08T22:50:01.070Z,8.60
2018-06-08T22:52:29.565Z,8.90
2018-06-08T22:54:57.981Z,8.80
2018-06-08T22:57:26.162Z,9.03
2018-06-08T22:59:54.293Z,8.60
2018-06-08T23:02:22.739Z,10.70
2018-06-08T23:04:51.312Z,9.27
2018-06-08T23:07:19.745Z,9.07
2018-06-08T23:09:48.186Z,9.30
2018-06-08T23:12:16.297Z,9.50
2018-06-08T23:14:44.456Z,9.10
2018-06-08T23:17:12.659Z,9.40
2018-06-08T23:19:41.075Z,10.23
2018-06-08T23:22:09.558Z,10.20
2018-06-08T23:24:38.102Z,8.97
2018-06-08T23:27:06.542Z,9.93
2018-06-08T23:29:34.655Z,10.90
2018-06-08T23:32:02.837Z,10.50
2018-06-08T23:34:30.979Z,11.30
2018-06-08T23:36:59.464Z,9.87
2018-06-08T23:39:27.565Z,10.33
2018-06-08T23:41:56.115Z,10.47
2018-06-08T23:44:24.209Z,9.67
2018-06-08T23:46:52.671Z,10.73
2018-06-08T23:49:20.785Z,10.93
2018-06-08T23:51:48.897Z,10.90
2018-06-08T23:54:17.128Z,11.57
2018-06-08T23:56:45.230Z,10.77
2018-06-08T23:59:13.375Z,10.90
